Time;durP1;ratioP1;P1;durP2;ratioP2;P2;SDS_P1;SDS_P2;PMS_P1;PMS_P2;Temp;Humidity;BMP_temperature;BMP_pressure;BME280_temperature;BME280_humidity;BME280_pressure;Samples;Min_cycle;Max_cycle;Signal;HPM_P1;HPM_P2
2023/10/22 00:00:30;;;;;;;80.83;40.40;;;;;;;9.45;100.00;99354.59;4221141;28;20856;-69
2023/10/22 00:02:56;;;;;;;87.97;42.87;;;;;;;9.42;100.00;99354.97;4223807;28;20227;-70
2023/10/22 00:05:24;;;;;;;98.20;45.70;;;;;;;9.38;100.00;99357.16;4219858;28;20248;-70
2023/10/22 00:07:50;;;;;;;94.17;46.13;;;;;;;9.40;100.00;99362.38;4220470;28;20240;-70
2023/10/22 00:10:17;;;;;;;99.93;46.10;;;;;;;9.24;100.00;99363.19;4216013;28;20241;-70
2023/10/22 00:12:44;;;;;;;88.23;42.97;;;;;;;9.31;100.00;99364.22;4223114;28;20239;-69
2023/10/22 00:15:10;;;;;;;78.77;41.47;;;;;;;9.45;100.00;99362.72;4213291;28;21034;-69
2023/10/22 00:17:37;;;;;;;97.43;45.30;;;;;;;9.38;100.00;99364.38;4209997;28;20275;-70
2023/10/22 00:20:05;;;;;;;100.97;46.53;;;;;;;9.29;100.00;99356.25;4209472;28;21169;-69
2023/10/22 00:22:31;;;;;;;81.10;41.27;;;;;;;9.36;100.00;99361.84;4218930;28;20387;-71
2023/10/22 00:24:59;;;;;;;74.37;39.93;;;;;;;9.46;100.00;99367.97;4224726;28;20223;-70
2023/10/22 00:27:26;;;;;;;82.37;41.20;;;;;;;9.45;100.00;99362.72;4221329;28;20261;-72
2023/10/22 00:29:52;;;;;;;79.10;39.27;;;;;;;9.39;100.00;99356.13;4217531;28;20248;-72
2023/10/22 00:32:19;;;;;;;106.77;48.20;;;;;;;9.43;100.00;99357.47;4205268;28;20382;-70
2023/10/22 00:34:46;;;;;;;98.40;46.30;;;;;;;9.34;100.00;99355.78;4222041;28;20235;-70
2023/10/22 00:37:12;;;;;;;97.67;44.97;;;;;;;9.33;100.00;99351.38;4226080;28;20979;-70
2023/10/22 00:39:39;;;;;;;95.27;44.40;;;;;;;9.29;100.00;99356.25;4227622;28;20248;-69
2023/10/22 00:42:05;;;;;;;86.77;42.70;;;;;;;9.35;100.00;99352.94;4211449;28;20235;-69
2023/10/22 00:44:32;;;;;;;101.07;44.90;;;;;;;9.32;100.00;99345.16;4218198;28;25076;-69
2023/10/22 00:47:02;;;;;;;108.50;46.27;;;;;;;9.31;100.00;99340.75;4214426;28;22005;-71
2023/10/22 00:49:29;;;;;;;105.63;43.33;;;;;;;9.35;100.00;99344.81;4213683;28;20426;-71
2023/10/22 00:51:56;;;;;;;94.27;41.83;;;;;;;9.39;100.00;99336.38;4218767;28;20646;-72
2023/10/22 00:54:26;;;;;;;80.40;40.23;;;;;;;9.31;100.00;99335.34;4218071;28;20240;-72
2023/10/22 00:56:53;;;;;;;96.83;42.37;;;;;;;9.33;100.00;99336.03;4216684;28;20492;-70
2023/10/22 00:59:20;;;;;;;98.57;43.27;;;;;;;9.26;100.00;99335.00;4220818;28;20255;-69
2023/10/22 01:01:47;;;;;;;73.17;36.53;;;;;;;9.41;100.00;99331.66;4207365;28;20223;-72
2023/10/22 01:04:13;;;;;;;79.20;36.93;;;;;;;9.32;100.00;99328.09;4217465;28;20227;-70
2023/10/22 01:06:40;;;;;;;82.43;39.07;;;;;;;9.43;100.00;99329.63;4205620;28;20470;-70
2023/10/22 01:09:09;;;;;;;120.70;44.03;;;;;;;9.18;100.00;99322.31;4208637;28;20719;-74
2023/10/22 01:11:38;;;;;;;107.13;41.87;;;;;;;9.33;100.00;99319.84;4211438;28;21203;-70
2023/10/22 01:14:05;;;;;;;104.20;42.30;;;;;;;9.18;100.00;99316.09;4229782;28;20231;-69
2023/10/22 01:16:32;;;;;;;144.43;44.53;;;;;;;9.12;100.00;99308.66;4209362;28;20382;-70
2023/10/22 01:18:59;;;;;;;118.13;41.60;;;;;;;9.07;100.00;99302.91;4208615;28;20387;-70
2023/10/22 01:21:29;;;;;;;102.20;38.20;;;;;;;9.06;100.00;99303.94;4236060;28;20236;-70
2023/10/22 01:23:55;;;;;;;145.07;44.87;;;;;;;8.99;100.00;99292.94;4212620;28;23056;-73
2023/10/22 01:26:22;;;;;;;112.47;43.07;;;;;;;8.93;100.00;99282.81;4209685;28;21086;-73
2023/10/22 01:28:48;;;;;;;94.93;42.10;;;;;;;8.94;100.00;99276.41;4230392;28;20247;-70
2023/10/22 01:31:16;;;;;;;81.17;37.53;;;;;;;8.96;100.00;99272.53;4201590;28;21713;-70
2023/10/22 01:33:43;;;;;;;88.50;38.83;;;;;;;8.98;100.00;99267.81;4207037;28;20414;-69
2023/10/22 01:36:10;;;;;;;81.23;37.93;;;;;;;8.96;100.00;99259.03;4217839;28;20322;-71
2023/10/22 01:38:37;;;;;;;78.73;36.50;;;;;;;8.97;100.00;99267.97;4214389;28;21563;-73
2023/10/22 01:41:08;;;;;;;102.03;41.17;;;;;;;8.96;100.00;99264.44;4218859;28;21783;-70
2023/10/22 01:43:35;;;;;;;79.57;36.40;;;;;;;8.93;100.00;99259.34;4224940;28;20246;-71
2023/10/22 01:46:02;;;;;;;84.80;37.17;;;;;;;8.88;100.00;99257.16;4225291;28;20243;-67
2023/10/22 01:48:28;;;;;;;82.10;37.03;;;;;;;8.91;100.00;99265.94;4225955;28;25392;-70
2023/10/22 01:50:55;;;;;;;79.47;37.33;;;;;;;8.90;100.00;99262.41;4208574;28;20772;-68
2023/10/22 01:53:21;;;;;;;75.60;35.57;;;;;;;8.97;100.00;99260.72;4225565;28;20234;-70
2023/10/22 01:55:48;;;;;;;74.63;35.07;;;;;;;8.98;100.00;99256.16;4237986;28;20236;-70
2023/10/22 01:58:14;;;;;;;75.93;35.47;;;;;;;8.99;100.00;99263.25;4219664;28;20355;-71
2023/10/22 02:00:41;;;;;;;71.23;36.00;;;;;;;8.96;100.00;99271.66;4224257;28;20320;-71
2023/10/22 02:03:08;;;;;;;76.03;37.70;;;;;;;9.01;100.00;99264.75;4238529;28;22907;-71
2023/10/22 02:05:35;;;;;;;75.67;35.93;;;;;;;9.07;100.00;99262.41;4219862;28;20318;-70
2023/10/22 02:08:03;;;;;;;83.17;38.47;;;;;;;9.07;100.00;99251.59;4206356;28;20229;-74
2023/10/22 02:10:30;;;;;;;76.43;35.97;;;;;;;9.08;100.00;99242.50;4208308;28;20471;-74
2023/10/22 02:12:56;;;;;;;72.13;35.77;;;;;;;9.09;100.00;99253.16;4225000;28;20254;-73
2023/10/22 02:15:26;;;;;;;68.03;34.43;;;;;;;9.20;100.00;99251.97;4204564;28;21694;-70
2023/10/22 02:17:53;;;;;;;64.40;32.70;;;;;;;9.18;100.00;99259.38;4204447;28;20245;-71
2023/10/22 02:20:20;;;;;;;65.27;31.93;;;;;;;9.14;100.00;99244.56;4210603;28;20334;-69
2023/10/22 02:22:46;;;;;;;62.00;33.43;;;;;;;9.16;100.00;99246.06;4213720;28;20231;-70
2023/10/22 02:25:13;;;;;;;64.70;32.87;;;;;;;9.13;100.00;99256.34;4216463;28;20313;-72
2023/10/22 02:27:39;;;;;;;57.10;30.63;;;;;;;9.17;100.00;99260.41;4225606;28;21830;-70
2023/10/22 02:30:07;;;;;;;52.57;30.40;;;;;;;9.17;100.00;99260.41;4200959;28;22581;-70
2023/10/22 02:32:34;;;;;;;62.00;31.93;;;;;;;9.09;100.00;99244.19;4217229;28;21266;-72
2023/10/22 02:35:01;;;;;;;57.43;30.60;;;;;;;9.15;100.00;99246.22;4218396;28;21887;-73
2023/10/22 02:37:27;;;;;;;61.70;32.90;;;;;;;9.11;100.00;99234.91;4214937;28;20236;-70
2023/10/22 02:39:54;;;;;;;68.97;33.13;;;;;;;9.18;100.00;99241.31;4211740;28;20831;-73
2023/10/22 02:42:20;;;;;;;64.50;31.67;;;;;;;9.18;100.00;99246.72;4218909;28;20251;-71
2023/10/22 02:44:47;;;;;;;61.63;32.20;;;;;;;9.29;100.00;99245.53;4218229;28;20240;-72
2023/10/22 02:47:13;;;;;;;58.50;30.50;;;;;;;9.25;100.00;99246.91;4214044;28;20243;-74
2023/10/22 02:49:40;;;;;;;55.83;29.43;;;;;;;9.33;100.00;99254.16;4205695;28;20248;-70
2023/10/22 02:52:06;;;;;;;59.87;31.40;;;;;;;9.29;100.00;99267.16;4226011;28;21143;-72
2023/10/22 02:54:34;;;;;;;52.87;29.83;;;;;;;9.34;100.00;99270.22;4217300;28;20317;-72
2023/10/22 02:57:01;;;;;;;55.70;28.53;;;;;;;9.34;100.00;99272.03;4209083;28;20566;-70
2023/10/22 02:59:28;;;;;;;53.30;28.00;;;;;;;9.36;100.00;99272.72;4222760;28;20434;-70
2023/10/22 03:01:54;;;;;;;53.67;28.27;;;;;;;9.35;100.00;99280.00;4222575;28;20237;-73
2023/10/22 03:04:21;;;;;;;49.33;28.07;;;;;;;9.31;100.00;99273.22;4204002;28;21713;-73
2023/10/22 03:06:48;;;;;;;50.47;27.53;;;;;;;9.25;100.00;99287.41;4209572;28;20251;-75
2023/10/22 03:09:14;;;;;;;53.60;29.03;;;;;;;9.33;100.00;99300.06;4214865;28;20233;-72
2023/10/22 03:11:41;;;;;;;51.23;26.67;;;;;;;9.29;100.00;99299.56;4204988;28;22706;-69
2023/10/22 03:14:08;;;;;;;52.63;27.27;;;;;;;9.31;100.00;99307.50;4207320;28;20240;-69
2023/10/22 03:16:35;;;;;;;49.07;25.90;;;;;;;9.29;100.00;99291.44;4215210;28;20379;-70
2023/10/22 03:19:02;;;;;;;50.23;26.00;;;;;;;9.25;100.00;99292.81;4205269;28;20244;-72
2023/10/22 03:21:33;;;;;;;40.00;23.90;;;;;;;9.33;100.00;99308.16;4202398;28;20235;-72
2023/10/22 03:24:03;;;;;;;43.10;23.70;;;;;;;9.35;100.00;99311.56;4228100;28;20232;-69
2023/10/22 03:26:32;;;;;;;40.33;23.30;;;;;;;9.31;100.00;99307.50;4217798;28;20480;-72
2023/10/22 03:28:59;;;;;;;37.10;20.63;;;;;;;9.32;100.00;99306.50;4232525;28;25216;-71
2023/10/22 03:31:26;;;;;;;38.70;20.87;;;;;;;9.34;100.00;99294.50;4234797;28;20223;-71
2023/10/22 03:33:53;;;;;;;40.77;20.77;;;;;;;9.40;100.00;99300.25;4229546;28;20322;-71
2023/10/22 03:36:19;;;;;;;35.77;20.20;;;;;;;9.41;100.00;99302.78;4224617;28;23149;-68
2023/10/22 03:38:46;;;;;;;34.90;19.67;;;;;;;9.43;100.00;99297.22;4221976;28;20228;-67
2023/10/22 03:41:12;;;;;;;36.07;20.10;;;;;;;9.42;100.00;99292.84;4216964;28;20328;-69
2023/10/22 03:43:39;;;;;;;34.80;18.57;;;;;;;9.47;100.00;99280.50;4207584;28;22094;-67
2023/10/22 03:46:05;;;;;;;33.13;18.87;;;;;;;9.39;100.00;99258.91;4215739;28;20237;-68
2023/10/22 03:48:32;;;;;;;25.53;15.53;;;;;;;9.43;100.00;99248.59;4216011;28;20268;-67
2023/10/22 03:50:59;;;;;;;30.00;16.87;;;;;;;9.42;100.00;99244.22;4219409;28;20245;-65
2023/10/22 03:53:26;;;;;;;27.57;16.10;;;;;;;9.41;100.00;99239.81;4199616;28;20234;-66
2023/10/22 03:55:53;;;;;;;28.30;15.73;;;;;;;9.39;100.00;99239.13;4214609;28;20291;-66
2023/10/22 03:58:20;;;;;;;28.73;15.00;;;;;;;9.43;100.00;99246.72;4221163;28;20233;-66
2023/10/22 04:00:46;;;;;;;24.00;14.20;;;;;;;9.46;100.00;99246.41;4212009;28;20236;-66
2023/10/22 04:03:13;;;;;;;29.83;14.60;;;;;;;9.46;100.00;99227.50;4221060;28;20264;-65
2023/10/22 04:05:39;;;;;;;28.50;14.20;;;;;;;9.49;100.00;99218.19;4207824;28;20236;-65
2023/10/22 04:08:07;;;;;;;22.63;13.53;;;;;;;9.60;100.00;99233.22;4208969;28;20340;-68
2023/10/22 04:10:34;;;;;;;28.83;15.07;;;;;;;9.56;100.00;99223.75;4210445;28;20425;-66
2023/10/22 04:13:02;;;;;;;20.27;12.03;;;;;;;9.68;100.00;99230.50;4219508;28;20266;-67
2023/10/22 04:15:37;;;;;;;25.67;12.70;;;;;;;9.71;100.00;99221.22;4218055;28;20297;-67
2023/10/22 04:18:04;;;;;;;20.17;11.97;;;;;;;9.70;100.00;99233.03;4202464;28;20237;-66
2023/10/22 04:20:33;;;;;;;23.20;13.93;;;;;;;9.63;100.00;99227.47;4202842;28;20384;-66
2023/10/22 04:23:00;;;;;;;22.17;11.97;;;;;;;9.61;100.00;99219.53;4212071;28;20236;-66
2023/10/22 04:25:28;;;;;;;19.40;11.13;;;;;;;9.68;100.00;99223.22;4227711;28;20360;-66
2023/10/22 04:27:54;;;;;;;19.33;10.90;;;;;;;9.73;100.00;99202.97;4222425;28;20314;-67
2023/10/22 04:30:21;;;;;;;15.73;10.60;;;;;;;9.75;100.00;99199.06;4204251;28;21859;-68
2023/10/22 04:32:47;;;;;;;18.27;10.00;;;;;;;9.82;100.00;99193.81;4217979;28;20240;-67
2023/10/22 04:35:14;;;;;;;17.73;10.07;;;;;;;9.80;100.00;99196.69;4215062;28;20486;-68
2023/10/22 04:37:41;;;;;;;16.27;10.10;;;;;;;9.75;100.00;99184.69;4220041;28;20552;-67
2023/10/22 04:40:08;;;;;;;16.80;10.03;;;;;;;9.79;100.00;99194.16;4212082;28;22714;-65
2023/10/22 04:42:34;;;;;;;19.40;9.97;;;;;;;9.77;100.00;99182.69;4205466;28;22331;-67
2023/10/22 04:45:01;;;;;;;15.07;8.80;;;;;;;9.83;100.00;99176.56;4218808;28;23250;-68
2023/10/22 04:47:27;;;;;;;13.77;8.73;;;;;;;9.82;100.00;99186.56;4211972;28;20228;-66
2023/10/22 04:49:54;;;;;;;15.77;8.50;;;;;;;9.78;100.00;99177.09;4216712;28;21702;-69
2023/10/22 04:52:27;;;;;;;15.67;7.33;;;;;;;9.80;100.00;99177.75;4218341;28;21273;-65
2023/10/22 04:54:53;;;;;;;15.37;7.80;;;;;;;9.72;100.00;99168.84;4216156;28;20239;-66
2023/10/22 04:57:20;;;;;;;13.57;7.10;;;;;;;9.75;100.00;99173.88;4212800;28;20240;-67
2023/10/22 04:59:46;;;;;;;11.43;7.00;;;;;;;9.78;100.00;99171.69;4219923;28;20303;-67
2023/10/22 05:02:13;;;;;;;13.37;5.33;;;;;;;9.80;100.00;99168.84;4221226;28;21296;-68
2023/10/22 05:04:40;;;;;;;9.00;6.03;;;;;;;9.85;100.00;99165.59;4217986;28;23936;-66
2023/10/22 05:07:06;;;;;;;14.57;7.67;;;;;;;9.86;100.00;99168.13;4214567;28;20235;-67
2023/10/22 05:09:34;;;;;;;16.50;7.37;;;;;;;9.90;100.00;99174.84;4216840;28;20246;-68
2023/10/22 05:12:00;;;;;;;9.23;6.53;;;;;;;9.98;100.00;99168.59;4220957;28;20312;-64
2023/10/22 05:14:29;;;;;;;10.80;7.20;;;;;;;9.96;100.00;99152.56;4213917;28;20234;-66
2023/10/22 05:16:55;;;;;;;11.93;6.37;;;;;;;9.98;100.00;99150.50;4219070;28;20220;-67
2023/10/22 05:19:22;;;;;;;9.73;6.37;;;;;;;10.01;100.00;99152.00;4223879;28;24736;-66
2023/10/22 05:21:49;;;;;;;8.70;5.90;;;;;;;10.05;100.00;99155.19;4225570;28;21147;-66
2023/10/22 05:24:16;;;;;;;9.23;6.10;;;;;;;10.01;100.00;99165.53;4222579;28;21588;-65
2023/10/22 05:26:43;;;;;;;10.70;6.50;;;;;;;9.93;100.00;99162.88;4228896;28;21069;-67
2023/10/22 05:29:10;;;;;;;7.60;5.53;;;;;;;10.09;100.00;99164.66;4209951;28;25450;-65
2023/10/22 05:31:36;;;;;;;10.97;6.47;;;;;;;10.02;100.00;99175.31;4205201;28;20376;-66
2023/10/22 05:34:03;;;;;;;12.73;7.27;;;;;;;10.12;100.00;99173.25;4224942;28;20236;-66
2023/10/22 05:36:30;;;;;;;8.60;6.33;;;;;;;10.18;100.00;99160.91;4225015;28;20957;-64
2023/10/22 05:38:56;;;;;;;10.13;6.63;;;;;;;10.21;100.00;99160.53;4201499;28;20232;-64
2023/10/22 05:41:28;;;;;;;9.37;5.90;;;;;;;10.22;100.00;99156.81;4214120;28;20237;-65
2023/10/22 05:44:01;;;;;;;9.07;5.33;;;;;;;10.33;100.00;99143.94;4231635;28;20238;-65
2023/10/22 05:46:34;;;;;;;7.17;5.17;;;;;;;10.28;100.00;99137.16;4210703;28;22992;-66
2023/10/22 05:49:03;;;;;;;8.50;5.00;;;;;;;10.37;100.00;99138.03;4218398;28;20309;-66
2023/10/22 05:51:30;;;;;;;6.87;4.47;;;;;;;10.38;100.00;99141.56;4236788;28;20474;-65
2023/10/22 05:53:57;;;;;;;11.33;5.17;;;;;;;10.34;100.00;99132.09;4217637;28;21254;-65
2023/10/22 05:56:26;;;;;;;10.60;5.80;;;;;;;10.37;100.00;99132.59;4198896;28;20240;-67
2023/10/22 05:58:52;;;;;;;10.43;5.47;;;;;;;10.33;100.00;99119.59;4223682;28;20273;-67
2023/10/22 06:01:19;;;;;;;10.60;6.27;;;;;;;10.30;100.00;99118.91;4221180;28;20262;-67
2023/10/22 06:03:46;;;;;;;8.77;5.90;;;;;;;10.26;100.00;99117.59;4206896;28;20228;-66
2023/10/22 06:06:18;;;;;;;8.77;5.47;;;;;;;10.28;100.00;99117.41;4219654;28;22745;-67
2023/10/22 06:08:46;;;;;;;8.33;5.63;;;;;;;10.29;100.00;99114.53;4224462;28;21772;-67
2023/10/22 06:11:14;;;;;;;8.30;5.17;;;;;;;10.28;100.00;99122.81;4218293;28;20370;-65
2023/10/22 06:13:41;;;;;;;6.97;5.23;;;;;;;10.30;100.00;99113.50;4223482;28;20302;-66
2023/10/22 06:16:07;;;;;;;8.73;5.50;;;;;;;10.31;100.00;99114.31;4205292;28;23379;-64
2023/10/22 06:18:34;;;;;;;8.10;5.57;;;;;;;10.26;100.00;99114.03;4215894;28;23078;-65
2023/10/22 06:21:15;;;;;;;10.90;6.23;;;;;;;10.25;100.00;99120.47;4224802;28;22348;-65
2023/10/22 06:23:43;;;;;;;9.23;6.47;;;;;;;10.30;100.00;99116.22;4225982;28;20236;-65
2023/10/22 06:26:11;;;;;;;9.23;6.20;;;;;;;10.34;100.00;99115.84;4215833;28;20231;-65
2023/10/22 06:28:39;;;;;;;9.83;6.97;;;;;;;10.36;100.00;99108.38;4223723;28;20239;-66
2023/10/22 06:31:14;;;;;;;11.23;6.63;;;;;;;10.40;100.00;99107.06;4236949;28;20275;-64
2023/10/22 06:33:41;;;;;;;12.47;6.63;;;;;;;10.39;100.00;99103.50;4223737;28;23131;-66
2023/10/22 06:36:22;;;;;;;10.17;6.30;;;;;;;10.43;100.00;99104.84;4227050;28;20501;-66
2023/10/22 06:38:49;;;;;;;10.57;6.60;;;;;;;10.42;100.00;99105.84;4220730;28;20228;-66
2023/10/22 06:41:23;;;;;;;11.83;6.93;;;;;;;10.51;100.00;99094.97;4221272;28;20964;-67
2023/10/22 06:43:50;;;;;;;11.97;6.80;;;;;;;10.40;100.00;99086.25;4230424;28;25342;-66
2023/10/22 06:46:18;;;;;;;10.90;7.40;;;;;;;10.44;100.00;99092.13;4236747;28;20380;-65
2023/10/22 06:48:45;;;;;;;9.73;6.70;;;;;;;10.51;100.00;99081.44;4230473;28;20236;-67
2023/10/22 06:51:15;;;;;;;11.10;6.57;;;;;;;10.56;100.00;99082.59;4221306;28;20314;-64
2023/10/22 06:53:43;;;;;;;9.77;6.30;;;;;;;10.60;100.00;99074.97;4220375;28;21902;-70
2023/10/22 06:56:12;;;;;;;9.77;6.80;;;;;;;10.62;100.00;99073.75;4225453;28;20240;-68
2023/10/22 06:58:39;;;;;;;11.10;7.53;;;;;;;10.68;100.00;99061.38;4240858;28;20233;-67
2023/10/22 07:01:07;;;;;;;15.27;7.57;;;;;;;10.68;100.00;99061.38;4243555;28;21437;-67
2023/10/22 07:03:35;;;;;;;10.30;6.93;;;;;;;10.69;100.00;99052.19;4216698;28;20235;-68
2023/10/22 07:06:02;;;;;;;11.47;7.43;;;;;;;10.65;100.00;99050.06;4219896;28;20254;-70
2023/10/22 07:08:29;;;;;;;10.37;7.47;;;;;;;10.71;100.00;99043.91;4227778;28;25913;-68
2023/10/22 07:10:57;;;;;;;13.57;7.93;;;;;;;10.68;100.00;99039.72;4233653;28;20232;-70
2023/10/22 07:13:24;;;;;;;10.07;6.67;;;;;;;10.74;100.00;99021.88;4209515;28;20308;-69
2023/10/22 07:15:52;;;;;;;9.80;6.43;;;;;;;10.84;100.00;99021.63;4211799;28;20224;-66
2023/10/22 07:18:19;;;;;;;11.03;7.30;;;;;;;10.78;100.00;99012.38;4230611;28;20470;-64
2023/10/22 07:20:47;;;;;;;13.80;8.50;;;;;;;10.77;100.00;99008.00;4219622;28;20657;-67
2023/10/22 07:23:14;;;;;;;14.57;8.07;;;;;;;10.80;100.00;99018.44;4218569;28;20759;-65
2023/10/22 07:25:40;;;;;;;10.57;7.37;;;;;;;10.77;100.00;99005.28;4220971;28;20231;-65
2023/10/22 07:28:07;;;;;;;9.87;7.10;;;;;;;10.82;100.00;99010.16;4224887;28;22884;-68
2023/10/22 07:30:34;;;;;;;9.53;6.70;;;;;;;10.85;100.00;98996.22;4203604;28;21001;-67
2023/10/22 07:33:00;;;;;;;10.10;6.60;;;;;;;10.85;100.00;98996.22;4215920;28;20241;-65
2023/10/22 07:35:27;;;;;;;10.50;6.67;;;;;;;10.88;100.00;98995.88;4227122;28;20232;-66
2023/10/22 07:37:54;;;;;;;11.23;7.47;;;;;;;10.82;100.00;98986.59;4225534;28;20243;-62
2023/10/22 07:40:20;;;;;;;9.50;6.87;;;;;;;10.87;100.00;98986.06;4234759;28;20237;-66
2023/10/22 07:42:50;;;;;;;12.20;6.50;;;;;;;10.86;100.00;98989.78;4199773;28;20373;-66
2023/10/22 07:45:17;;;;;;;8.10;5.73;;;;;;;10.93;100.00;98990.72;4195031;28;20305;-66
2023/10/22 07:47:44;;;;;;;8.47;5.47;;;;;;;10.89;100.00;98987.56;4188539;28;20850;-66
2023/10/22 07:50:11;;;;;;;7.20;5.10;;;;;;;10.88;100.00;98993.16;4186764;28;20280;-65
2023/10/22 07:52:38;;;;;;;7.07;5.23;;;;;;;10.89;100.00;98995.66;4193694;28;20252;-69
2023/10/22 07:55:07;;;;;;;7.93;5.60;;;;;;;10.83;100.00;98987.47;4188193;28;22944;-65
2023/10/22 07:57:34;;;;;;;7.07;5.43;;;;;;;10.82;100.00;98991.19;4187820;28;20241;-69
2023/10/22 08:00:01;;;;;;;7.47;5.73;;;;;;;10.85;100.00;98994.38;4186819;28;20304;-65
2023/10/22 08:02:27;;;;;;;10.03;6.70;;;;;;;10.78;100.00;98998.84;4193189;28;20241;-67
2023/10/22 08:04:54;;;;;;;8.03;6.40;;;;;;;10.76;100.00;99004.41;4189936;28;20288;-65
2023/10/22 08:07:21;;;;;;;10.43;7.07;;;;;;;10.75;100.00;98997.34;4196154;28;20937;-67
2023/10/22 08:09:48;;;;;;;9.67;7.13;;;;;;;10.68;100.00;98991.00;4179880;28;22191;-66
2023/10/22 08:12:14;;;;;;;10.80;6.57;;;;;;;10.72;100.00;98995.00;4183956;28;20441;-68
2023/10/22 08:14:41;;;;;;;9.77;7.17;;;;;;;10.75;100.00;98994.66;4197652;28;20313;-67
2023/10/22 08:17:08;;;;;;;9.63;7.20;;;;;;;10.71;100.00;98985.19;4197267;28;20234;-66
2023/10/22 08:19:34;;;;;;;11.23;7.43;;;;;;;10.74;100.00;98986.69;4186129;28;20241;-66
2023/10/22 08:22:01;;;;;;;10.07;7.10;;;;;;;10.67;100.00;98981.19;4194425;28;21166;-66
2023/10/22 08:24:29;;;;;;;10.07;6.87;;;;;;;10.72;100.00;98977.94;4192615;28;20419;-67
2023/10/22 08:26:59;;;;;;;12.37;6.77;;;;;;;10.67;100.00;98986.59;4184266;28;20252;-66
2023/10/22 08:29:26;;;;;;;9.50;6.63;;;;;;;10.67;100.00;98986.59;4195617;28;20233;-66
2023/10/22 08:31:52;;;;;;;7.73;5.73;;;;;;;10.70;100.00;98986.22;4206476;28;20232;-68
2023/10/22 08:34:21;;;;;;;9.07;5.73;;;;;;;10.62;100.00;98973.63;4191525;28;20947;-65
2023/10/22 08:36:47;;;;;;;8.73;6.03;;;;;;;10.65;100.00;98974.28;4198273;28;20254;-66
2023/10/22 08:39:14;;;;;;;7.30;5.03;;;;;;;10.68;100.00;98969.34;4199282;28;20564;-66
2023/10/22 08:41:47;;;;;;;7.50;4.97;;;;;;;10.62;100.00;98973.63;4182413;28;20287;-64
2023/10/22 08:44:15;;;;;;;6.70;4.37;;;;;;;10.68;100.00;98966.63;4214096;28;20251;-66
2023/10/22 08:46:42;;;;;;;7.40;4.10;;;;;;;10.65;100.00;98967.00;4240556;28;20236;-66
2023/10/22 08:49:10;;;;;;;5.83;4.10;;;;;;;10.67;100.00;98962.25;4224213;28;20240;-66
2023/10/22 08:51:37;;;;;;;5.87;4.30;;;;;;;10.71;100.00;98968.97;4218607;28;20308;-66
2023/10/22 08:54:04;;;;;;;5.80;4.10;;;;;;;10.61;100.00;98974.63;4223618;28;20292;-64
2023/10/22 08:56:32;;;;;;;6.27;4.20;;;;;;;10.63;100.00;98977.16;4223608;28;20283;-65
2023/10/22 08:59:02;;;;;;;6.07;3.63;;;;;;;10.63;100.00;98969.03;4223729;28;20534;-68
2023/10/22 09:01:28;;;;;;;7.13;4.43;;;;;;;10.69;100.00;98967.47;4220087;28;20321;-66
2023/10/22 09:03:56;;;;;;;7.37;4.20;;;;;;;10.69;100.00;98972.88;4231203;28;20298;-65
2023/10/22 09:06:23;;;;;;;6.07;4.57;;;;;;;10.69;100.00;98967.47;4218859;28;20511;-66
2023/10/22 09:08:52;;;;;;;8.53;5.27;;;;;;;10.66;100.00;98960.56;4228179;28;21408;-64
2023/10/22 09:11:20;;;;;;;8.40;5.40;;;;;;;10.67;100.00;98959.53;4225471;28;23246;-65
2023/10/22 09:13:48;;;;;;;9.83;6.23;;;;;;;10.65;100.00;98955.34;4220276;28;20304;-65
2023/10/22 09:16:31;;;;;;;10.63;5.70;;;;;;;10.65;100.00;98949.94;4217702;28;20453;-69
2023/10/22 09:19:01;;;;;;;9.77;5.07;;;;;;;10.65;100.00;98960.75;4223497;28;20244;-68
2023/10/22 09:21:41;;;;;;;8.60;5.83;;;;;;;10.66;100.00;98954.28;4219672;28;22722;-66
2023/10/22 09:24:09;;;;;;;8.47;6.13;;;;;;;10.66;100.00;98947.03;4196293;28;21602;-67
2023/10/22 09:26:42;;;;;;;9.17;5.33;;;;;;;10.78;100.00;98944.72;4223760;28;20242;-68
2023/10/22 09:29:08;;;;;;;9.93;5.60;;;;;;;10.74;100.00;98937.97;4219382;28;21713;-68
2023/10/22 09:31:35;;;;;;;8.20;5.50;;;;;;;10.76;100.00;98935.94;4212305;28;20330;-66
2023/10/22 09:34:03;;;;;;;8.83;5.47;;;;;;;10.82;100.00;98927.06;4215205;28;20949;-70
2023/10/22 09:36:29;;;;;;;11.10;6.00;;;;;;;10.87;100.00;98921.94;4213030;28;20231;-66
2023/10/22 09:38:56;;;;;;;7.53;5.57;;;;;;;10.88;100.00;98920.88;4219764;28;21626;-67
2023/10/22 09:41:23;;;;;;;11.13;5.70;;;;;;;10.85;100.00;98915.00;4219666;28;20267;-66
2023/10/22 09:43:55;;;;;;;11.23;5.80;;;;;;;10.92;100.00;98918.66;4227720;28;20286;-67
2023/10/22 09:46:28;;;;;;;9.97;6.30;;;;;;;10.83;100.00;98912.50;4213719;28;21409;-66
2023/10/22 09:48:57;;;;;;;13.27;6.67;;;;;;;10.90;100.00;98912.59;4217855;28;21492;-64
2023/10/22 09:51:30;;;;;;;8.93;6.13;;;;;;;10.88;100.00;98915.47;4221731;28;20240;-67
2023/10/22 09:54:02;;;;;;;12.67;7.60;;;;;;;10.94;100.00;98912.03;4223276;28;20243;-66
2023/10/22 09:56:32;;;;;;;13.80;7.53;;;;;;;10.93;100.00;98909.50;4219063;28;21211;-66
2023/10/22 09:59:04;;;;;;;12.60;7.40;;;;;;;11.04;100.00;98916.31;4217205;28;20256;-66
2023/10/22 10:01:31;;;;;;;10.20;7.13;;;;;;;11.20;100.00;98913.41;4220461;28;20232;-66
2023/10/22 10:04:01;;;;;;;14.03;7.70;;;;;;;11.15;100.00;98905.00;4218216;28;20290;-69
2023/10/22 10:06:30;;;;;;;21.07;7.90;;;;;;;11.20;100.00;98910.69;4226151;28;21823;-64
2023/10/22 10:08:59;;;;;;;15.30;8.37;;;;;;;11.10;100.00;98908.28;4229377;28;23567;-63
2023/10/22 10:11:27;;;;;;;10.60;7.50;;;;;;;11.11;100.00;98901.00;4228329;28;20239;-64
2023/10/22 10:13:54;;;;;;;13.73;8.20;;;;;;;11.06;100.00;98898.00;4216913;28;20305;-66
2023/10/22 10:16:23;;;;;;;13.03;7.57;;;;;;;11.24;100.00;98892.19;4216764;28;20254;-64
2023/10/22 10:19:03;;;;;;;14.87;8.03;;;;;;;11.09;100.00;98892.22;4215811;28;22967;-64
2023/10/22 10:21:39;;;;;;;14.67;7.70;;;;;;;11.19;100.00;98890.06;4225205;28;22367;-67
2023/10/22 10:24:16;;;;;;;13.77;8.17;;;;;;;11.05;100.00;98872.81;4212890;28;20736;-66
2023/10/22 10:26:48;;;;;;;12.43;8.13;;;;;;;11.13;100.00;98873.75;4225802;28;20295;-66
2023/10/22 10:29:34;;;;;;;12.97;8.37;;;;;;;11.20;100.00;98869.25;4208997;28;20228;-65
2023/10/22 10:32:13;;;;;;;15.30;8.13;;;;;;;11.23;100.00;98869.69;4236795;28;22752;-63
2023/10/22 10:34:44;;;;;;;14.30;8.57;;;;;;;11.29;100.00;98862.66;4216207;28;20232;-64
2023/10/22 10:37:16;;;;;;;13.27;8.93;;;;;;;11.23;100.00;98866.13;4221807;28;20254;-63
2023/10/22 10:39:47;;;;;;;13.50;9.20;;;;;;;11.21;100.00;98869.03;4223232;28;21785;-65
2023/10/22 10:42:36;;;;;;;19.10;10.10;;;;;;;11.19;100.00;98865.66;4220888;28;20240;-63
2023/10/22 10:45:04;;;;;;;15.37;9.43;;;;;;;11.23;100.00;98867.00;4201727;28;20261;-63
2023/10/22 10:47:41;;;;;;;12.77;8.43;;;;;;;11.26;100.00;98857.63;4224577;28;20701;-62
2023/10/22 10:50:13;;;;;;;12.60;8.30;;;;;;;11.26;100.00;98868.47;4218703;28;20603;-66
2023/10/22 10:52:42;;;;;;;17.40;9.27;;;;;;;11.34;100.00;98859.38;4220574;28;21564;-64
2023/10/22 10:55:15;;;;;;;15.17;9.20;;;;;;;11.25;100.00;98858.66;4212278;28;21657;-66
2023/10/22 10:57:50;;;;;;;13.93;9.13;;;;;;;11.25;100.00;98850.53;4225820;28;21832;-64
2023/10/22 11:00:21;;;;;;;12.33;7.80;;;;;;;11.33;100.00;98858.56;4208629;28;20232;-64
2023/10/22 11:02:50;;;;;;;13.53;8.80;;;;;;;11.29;100.00;98854.53;4218904;28;20237;-65
2023/10/22 11:05:29;;;;;;;14.47;9.37;;;;;;;11.26;100.00;98852.22;4221236;28;20854;-67
2023/10/22 11:07:56;;;;;;;13.80;9.17;;;;;;;11.29;100.00;98856.41;4225829;28;20535;-70
2023/10/22 11:10:23;;;;;;;15.63;9.57;;;;;;;11.37;100.00;98848.16;4230964;28;21778;-69
2023/10/22 11:12:53;;;;;;;14.53;8.90;;;;;;;11.41;100.00;98846.75;4230613;28;20602;-71
2023/10/22 11:15:20;;;;;;;16.20;9.57;;;;;;;11.47;100.00;98845.13;4221746;28;20290;-66
2023/10/22 11:17:46;;;;;;;16.10;9.40;;;;;;;11.44;100.00;98842.84;4216067;28;20236;-67
2023/10/22 11:20:15;;;;;;;14.30;8.60;;;;;;;11.49;100.00;98846.63;4210572;28;20632;-67
2023/10/22 11:22:42;;;;;;;12.60;7.73;;;;;;;11.63;100.00;98849.50;4203892;28;21249;-69